createdAt,value
2024-03-06T00:01:11.386Z,9.15
2024-03-06T00:03:38.562Z,9.98
2024-03-06T00:06:06.521Z,10.25
2024-03-06T00:08:35.400Z,10.07
2024-03-06T00:11:03.157Z,9.30
2024-03-06T00:13:30.314Z,8.98
2024-03-06T00:15:57.792Z,9.68
2024-03-06T00:18:25.002Z,9.27
2024-03-06T00:20:54.972Z,10.73
2024-03-06T00:23:22.273Z,10.48
2024-03-06T00:25:51.041Z,9.35
2024-03-06T00:28:18.176Z,9.13
2024-03-06T00:30:45.153Z,10.57
2024-03-06T00:33:12.260Z,9.52
2024-03-06T00:35:39.237Z,10.13
2024-03-06T00:38:07.635Z,10.13
2024-03-06T00:40:34.823Z,9.95
2024-03-06T00:43:03.410Z,10.80
2024-03-06T00:45:30.472Z,10.63
2024-03-06T00:47:57.806Z,9.23
2024-03-06T00:50:25.542Z,10.75
2024-03-06T00:52:52.607Z,9.77
2024-03-06T00:55:19.634Z,9.90
2024-03-06T00:57:47.435Z,10.85
2024-03-06T01:00:17.587Z,9.63
2024-03-06T01:02:44.649Z,9.35
2024-03-06T01:05:12.037Z,10.23
2024-03-06T01:07:40.502Z,10.60
2024-03-06T01:10:10.307Z,9.63
2024-03-06T01:12:37.730Z,10.55
2024-03-06T01:15:06.233Z,8.95
2024-03-06T01:17:34.768Z,9.40
2024-03-06T01:20:02.471Z,9.30
2024-03-06T01:22:29.620Z,9.38
2024-03-06T01:24:56.648Z,9.75
2024-03-06T01:27:23.733Z,9.57
2024-03-06T01:29:50.799Z,10.13
2024-03-06T01:32:17.896Z,10.30
2024-03-06T01:34:46.885Z,9.70
2024-03-06T01:37:14.135Z,10.02
2024-03-06T01:39:41.166Z,8.93
2024-03-06T01:42:08.199Z,10.00
2024-03-06T01:44:35.211Z,10.25
2024-03-06T01:47:02.278Z,9.10
2024-03-06T01:49:36.830Z,10.00
2024-03-06T01:52:15.109Z,9.35
2024-03-06T01:54:43.035Z,9.38
2024-03-06T01:57:14.436Z,9.48
2024-03-06T01:59:42.791Z,9.88
2024-03-06T02:02:12.367Z,10.82
2024-03-06T02:04:39.907Z,9.82
2024-03-06T02:07:14.024Z,9.00
2024-03-06T02:09:41.548Z,9.32
2024-03-06T02:12:09.578Z,9.27
2024-03-06T02:14:37.365Z,9.38
2024-03-06T02:17:04.608Z,9.38
2024-03-06T02:19:42.982Z,8.88
2024-03-06T02:22:12.625Z,9.65
2024-03-06T02:24:46.088Z,9.65
2024-03-06T02:27:13.333Z,9.82
2024-03-06T02:29:40.385Z,9.43
2024-03-06T02:32:07.451Z,8.88
2024-03-06T02:34:34.656Z,13.02
2024-03-06T02:37:01.749Z,8.38
2024-03-06T02:39:30.465Z,9.38
2024-03-06T02:41:57.862Z,10.30
2024-03-06T02:44:25.036Z,10.60
2024-03-06T02:46:52.363Z,9.48
2024-03-06T02:49:20.027Z,9.88
2024-03-06T02:51:47.429Z,10.38
2024-03-06T02:54:15.365Z,10.05
2024-03-06T02:56:43.816Z,9.82
2024-03-06T02:59:11.148Z,9.82
2024-03-06T03:01:39.545Z,8.77
2024-03-06T03:04:07.814Z,9.35
2024-03-06T03:06:35.389Z,9.40
2024-03-06T03:09:04.774Z,8.80
2024-03-06T03:11:33.256Z,8.45
2024-03-06T03:14:01.732Z,9.57
2024-03-06T03:16:28.818Z,8.02
2024-03-06T03:18:56.003Z,7.90
2024-03-06T03:21:23.599Z,7.93
2024-03-06T03:23:50.938Z,9.05
2024-03-06T03:26:18.110Z,8.50
2024-03-06T03:28:45.264Z,7.38
2024-03-06T03:31:13.844Z,8.10
2024-03-06T03:33:41.860Z,8.48
2024-03-06T03:36:10.560Z,7.30
2024-03-06T03:38:42.218Z,7.68
2024-03-06T03:41:10.107Z,7.68
2024-03-06T03:43:37.752Z,8.38
2024-03-06T03:46:05.561Z,8.48
2024-03-06T03:48:38.374Z,8.98
2024-03-06T03:51:06.695Z,8.07
2024-03-06T03:53:34.319Z,6.95
2024-03-06T03:56:02.129Z,7.32
2024-03-06T03:58:29.739Z,8.05
2024-03-06T04:00:57.386Z,7.38
2024-03-06T04:03:25.648Z,7.18
2024-03-06T04:05:54.231Z,8.40
2024-03-06T04:08:21.234Z,8.70
2024-03-06T04:10:48.446Z,7.63
2024-03-06T04:13:17.726Z,9.15
2024-03-06T04:15:44.972Z,8.05
2024-03-06T04:18:12.220Z,8.80
2024-03-06T04:20:39.549Z,8.20
2024-03-06T04:23:08.544Z,10.32
2024-03-06T04:25:35.749Z,8.30
2024-03-06T04:28:03.659Z,9.23
2024-03-06T04:30:30.860Z,9.27
2024-03-06T04:32:58.356Z,8.52
2024-03-06T04:35:25.475Z,8.63
2024-03-06T04:37:53.195Z,9.30
2024-03-06T04:40:23.462Z,8.45
2024-03-06T04:42:50.733Z,8.77
2024-03-06T04:45:18.769Z,9.18
2024-03-06T04:47:46.179Z,10.30
2024-03-06T04:50:15.664Z,9.18
2024-03-06T04:52:43.757Z,8.88
2024-03-06T04:55:15.404Z,8.40
2024-03-06T04:57:46.149Z,8.57
2024-03-06T06:02:01.000Z,9.40
2024-03-06T06:04:28.094Z,10.65
2024-03-06T06:06:55.312Z,10.25
2024-03-06T06:09:22.738Z,10.30
2024-03-06T06:11:51.760Z,10.07
2024-03-06T06:14:18.806Z,10.00
2024-03-06T06:16:45.882Z,9.38
2024-03-06T06:19:14.260Z,9.90
2024-03-06T06:21:44.539Z,10.13
2024-03-06T06:24:11.739Z,9.90
2024-03-06T06:26:39.002Z,9.80
2024-03-06T06:29:06.394Z,9.32
2024-03-06T06:31:33.476Z,11.02
2024-03-06T06:34:00.709Z,10.32
2024-03-06T06:36:29.169Z,11.05
2024-03-06T06:38:56.332Z,11.32
2024-03-06T06:41:24.196Z,10.85
2024-03-06T06:43:53.500Z,10.32
2024-03-06T06:46:22.170Z,10.00
2024-03-06T06:48:50.163Z,10.32
2024-03-06T06:51:17.303Z,10.18
2024-03-06T06:53:45.778Z,10.23
2024-03-06T06:56:13.272Z,9.27
2024-03-06T06:58:43.901Z,9.95
2024-03-06T07:03:38.216Z,8.68
2024-03-06T07:06:07.401Z,10.32
2024-03-06T07:08:34.693Z,9.88
2024-03-06T07:11:03.296Z,10.30
2024-03-06T07:13:30.409Z,9.18
2024-03-06T07:15:57.785Z,8.80
2024-03-06T07:18:25.047Z,9.68
2024-03-06T07:20:52.222Z,9.68
2024-03-06T07:23:19.634Z,9.27
2024-03-06T07:25:46.764Z,8.85
2024-03-06T07:28:15.115Z,9.35
2024-03-06T07:30:42.503Z,8.15
2024-03-06T07:33:10.053Z,9.18
2024-03-06T07:35:37.511Z,9.43
2024-03-06T07:38:05.876Z,10.75
2024-03-06T07:40:33.224Z,9.93
2024-03-06T07:43:00.925Z,8.90
2024-03-06T07:45:30.494Z,9.45
2024-03-06T07:47:57.778Z,8.88
2024-03-06T07:50:27.271Z,8.70
2024-03-06T07:52:56.079Z,9.23
2024-03-06T07:55:23.645Z,8.52
2024-03-06T07:57:50.777Z,7.50
2024-03-06T08:00:20.941Z,7.63
2024-03-06T08:02:51.273Z,7.90
2024-03-06T08:05:19.178Z,8.50
2024-03-06T08:07:47.181Z,9.52
2024-03-06T08:10:15.455Z,9.43
2024-03-06T08:12:43.116Z,8.48
2024-03-06T08:15:15.127Z,8.10
2024-03-06T08:17:44.817Z,8.10
2024-03-06T08:20:14.182Z,7.60
2024-03-06T08:22:43.925Z,7.90
2024-03-06T08:25:12.983Z,7.38
2024-03-06T08:27:42.314Z,7.35
2024-03-06T08:30:10.688Z,9.20
2024-03-06T08:32:39.032Z,9.30
2024-03-06T08:35:12.136Z,8.82
2024-03-06T08:37:41.754Z,8.32
2024-03-06T08:40:19.892Z,8.70
2024-03-06T08:42:50.402Z,9.30
2024-03-06T08:47:47.890Z,8.52
2024-03-06T08:50:16.031Z,10.00
2024-03-06T08:52:47.350Z,7.65
2024-03-06T08:55:15.040Z,8.70
2024-03-06T08:57:42.845Z,8.25
2024-03-06T09:00:15.929Z,8.13
2024-03-06T09:02:43.839Z,9.30
2024-03-06T09:05:13.836Z,16.42
2024-03-06T09:07:44.837Z,16.60
2024-03-06T09:10:14.350Z,17.67
2024-03-06T09:12:42.651Z,18.75
2024-03-06T09:15:11.135Z,16.13
2024-03-06T09:17:38.800Z,17.35
2024-03-06T09:20:14.354Z,15.65
2024-03-06T09:22:44.264Z,18.70
2024-03-06T09:25:15.909Z,16.02
2024-03-06T09:27:44.405Z,16.73
2024-03-06T09:30:14.620Z,23.63
2024-03-06T09:32:43.246Z,16.85
2024-03-06T09:35:10.886Z,14.57
2024-03-06T09:37:38.045Z,14.98
2024-03-06T09:40:08.874Z,15.38
2024-03-06T09:42:37.609Z,14.40
2024-03-06T09:45:06.502Z,15.27
2024-03-06T09:47:37.165Z,16.80
2024-03-06T09:50:10.256Z,15.27
2024-03-06T09:52:40.316Z,14.48
2024-03-06T09:55:11.100Z,12.13
2024-03-06T09:57:39.817Z,13.85
2024-03-06T10:00:09.545Z,14.20
2024-03-06T10:02:50.454Z,15.07
2024-03-06T10:05:24.894Z,13.52
2024-03-06T10:07:53.485Z,14.95
2024-03-06T10:10:21.931Z,14.50
2024-03-06T10:12:50.984Z,13.23
2024-03-06T10:15:18.513Z,13.05
2024-03-06T10:17:50.374Z,12.75
2024-03-06T10:20:23.345Z,14.82
2024-03-06T10:22:58.623Z,12.40
2024-03-06T10:25:28.352Z,12.30
2024-03-06T10:28:08.334Z,12.50
2024-03-06T10:30:37.021Z,11.77
2024-03-06T10:33:05.735Z,13.45
2024-03-06T10:35:33.060Z,14.43
2024-03-06T10:38:05.743Z,15.85
2024-03-06T10:40:34.898Z,14.77
2024-03-06T10:43:04.113Z,13.50
2024-03-06T10:45:45.135Z,12.57
2024-03-06T10:48:15.591Z,14.13
2024-03-06T10:53:18.651Z,12.02
2024-03-06T10:55:51.441Z,14.45
2024-03-06T10:58:23.625Z,15.25
2024-03-06T11:00:53.495Z,16.02
2024-03-06T11:03:21.219Z,18.13
2024-03-06T11:05:49.188Z,14.70
2024-03-06T11:08:18.485Z,13.75
2024-03-06T11:10:46.964Z,12.18
2024-03-06T11:13:24.580Z,13.45
2024-03-06T11:15:54.955Z,14.57
2024-03-06T11:18:46.393Z,14.88
2024-03-06T11:21:30.630Z,15.57
2024-03-06T11:24:21.241Z,15.35
2024-03-06T11:26:58.542Z,15.90
2024-03-06T11:29:29.247Z,15.65
2024-03-06T11:32:03.828Z,15.23
2024-03-06T11:34:34.405Z,13.63
2024-03-06T11:37:06.189Z,12.68
2024-03-06T11:39:36.654Z,14.75
2024-03-06T11:42:09.850Z,14.13
2024-03-06T11:44:38.230Z,13.88
2024-03-06T11:47:10.196Z,15.45
2024-03-06T11:49:38.983Z,14.95
2024-03-06T11:52:11.891Z,15.43
2024-03-06T11:54:40.115Z,12.85
2024-03-06T11:57:07.993Z,16.40
2024-03-06T11:59:39.865Z,18.45
2024-03-06T12:02:11.309Z,16.48
2024-03-06T12:04:39.792Z,16.23
2024-03-06T12:07:08.050Z,17.52
2024-03-06T12:09:41.167Z,18.67
2024-03-06T12:12:10.872Z,16.42
2024-03-06T12:14:41.130Z,17.45
2024-03-06T12:17:16.635Z,16.08
2024-03-06T12:19:46.484Z,15.50
2024-03-06T12:22:16.058Z,16.48
2024-03-06T12:24:43.962Z,12.05
2024-03-06T12:27:11.102Z,14.32
2024-03-06T12:29:39.090Z,15.18
2024-03-06T12:32:19.729Z,14.40
2024-03-06T12:34:59.909Z,14.85
2024-03-06T12:37:34.734Z,13.38
2024-03-06T12:40:05.600Z,13.25
2024-03-06T12:42:33.615Z,13.43
2024-03-06T12:45:00.814Z,16.75
2024-03-06T12:47:29.316Z,16.83
2024-03-06T12:49:57.012Z,17.83
2024-03-06T12:52:24.521Z,19.98
2024-03-06T12:54:51.741Z,14.65
2024-03-06T12:59:46.175Z,17.65
2024-03-06T13:02:13.547Z,19.40
2024-03-06T13:04:42.038Z,17.33
2024-03-06T13:07:09.189Z,18.02
2024-03-06T13:09:36.214Z,15.05
2024-03-06T13:12:03.693Z,16.52
2024-03-06T13:14:32.232Z,14.27
2024-03-06T13:16:59.592Z,17.42
2024-03-06T13:19:26.857Z,16.15
2024-03-06T13:21:55.951Z,18.05
2024-03-06T13:24:23.412Z,16.17
2024-03-06T13:26:51.456Z,15.02
2024-03-06T13:29:19.018Z,12.93
2024-03-06T13:31:46.097Z,14.68
2024-03-06T13:34:13.217Z,12.55
2024-03-06T13:36:40.321Z,13.13
2024-03-06T13:39:08.710Z,13.77
2024-03-06T13:41:35.880Z,14.05
2024-03-06T13:44:03.168Z,16.05
2024-03-06T13:46:30.269Z,17.92
2024-03-06T13:48:57.348Z,16.30
2024-03-06T13:51:24.542Z,15.75
2024-03-06T13:53:51.716Z,14.23
2024-03-06T13:56:20.338Z,15.93
2024-03-06T13:58:47.419Z,16.00
2024-03-06T14:01:17.300Z,13.13
2024-03-06T14:03:47.068Z,13.73
2024-03-06T14:06:14.170Z,15.10
2024-03-06T14:08:42.788Z,15.57
2024-03-06T14:11:10.346Z,14.77
2024-03-06T14:13:39.361Z,14.70
2024-03-06T14:16:07.336Z,15.88
2024-03-06T14:18:35.328Z,14.82
2024-03-06T14:21:02.486Z,15.48
2024-03-06T14:23:31.025Z,15.88
2024-03-06T14:25:58.185Z,13.30
2024-03-06T14:28:25.742Z,12.68
2024-03-06T14:30:54.444Z,12.38
2024-03-06T14:33:21.702Z,14.07
2024-03-06T14:35:50.560Z,13.35
2024-03-06T14:38:17.724Z,12.70
2024-03-06T14:40:45.533Z,12.60
2024-03-06T14:43:13.539Z,13.50
2024-03-06T14:45:43.553Z,13.95
2024-03-06T14:48:12.625Z,15.98
2024-03-06T14:50:39.837Z,14.43
2024-03-06T14:53:07.106Z,13.82
2024-03-06T14:55:35.031Z,13.73
2024-03-06T14:58:02.310Z,11.55
2024-03-06T15:00:29.660Z,13.98
2024-03-06T15:02:59.429Z,12.80
2024-03-06T15:05:28.732Z,13.95
2024-03-06T15:07:55.969Z,11.93
2024-03-06T15:10:23.506Z,14.40
2024-03-06T15:12:52.225Z,12.25
2024-03-06T15:15:20.511Z,13.75
2024-03-06T15:17:48.486Z,12.70
2024-03-06T15:20:18.402Z,13.57
2024-03-06T15:22:48.281Z,12.77
2024-03-06T15:25:18.643Z,11.65
2024-03-06T15:27:48.263Z,12.02
2024-03-06T15:30:15.724Z,12.77
2024-03-06T15:32:43.025Z,15.27
2024-03-06T15:35:10.374Z,15.02
2024-03-06T15:37:38.020Z,14.40
2024-03-06T15:40:10.926Z,15.68
2024-03-06T15:42:38.878Z,16.25
2024-03-06T15:45:07.254Z,15.40
2024-03-06T15:47:35.578Z,14.70
2024-03-06T15:50:03.063Z,16.13
2024-03-06T15:52:30.377Z,21.13
2024-03-06T15:54:58.073Z,15.55
2024-03-06T15:57:26.965Z,17.98
2024-03-06T15:59:54.192Z,15.05
2024-03-06T16:02:21.319Z,15.75
2024-03-06T16:04:48.576Z,15.30
2024-03-06T16:07:15.719Z,16.85
2024-03-06T16:09:42.834Z,17.27
2024-03-06T16:12:10.012Z,12.82
2024-03-06T16:14:38.450Z,14.55
2024-03-06T16:17:07.716Z,17.63
2024-03-06T16:19:38.992Z,15.38
2024-03-06T16:22:13.288Z,16.88
2024-03-06T16:24:40.763Z,15.63
2024-03-06T16:27:07.863Z,14.35
2024-03-06T16:29:35.307Z,14.43
2024-03-06T16:32:07.196Z,17.92
2024-03-06T16:34:34.670Z,17.92
2024-03-06T16:37:06.333Z,18.60
2024-03-06T16:39:33.638Z,15.80
2024-03-06T16:42:01.025Z,16.23
2024-03-06T16:44:28.211Z,15.45
2024-03-06T16:46:55.401Z,18.65
2024-03-06T16:49:23.945Z,16.45
2024-03-06T16:51:51.062Z,17.08
2024-03-06T16:54:18.730Z,15.30
2024-03-06T16:56:45.908Z,13.57
2024-03-06T16:59:13.254Z,15.70
2024-03-06T17:01:40.505Z,18.63
2024-03-06T17:04:08.482Z,17.13
2024-03-06T17:06:36.991Z,17.60
2024-03-06T17:09:06.461Z,15.85
2024-03-06T17:11:34.107Z,15.88
2024-03-06T17:14:01.224Z,16.10
2024-03-06T17:16:28.253Z,14.35
2024-03-06T17:18:55.365Z,15.30
2024-03-06T17:21:22.497Z,14.10
2024-03-06T17:23:53.032Z,16.00
2024-03-06T17:26:20.306Z,16.33
2024-03-06T17:28:50.253Z,16.70
2024-03-06T17:31:19.250Z,16.38
2024-03-06T17:33:46.285Z,16.40
2024-03-06T17:36:13.791Z,16.40
2024-03-06T17:38:42.617Z,15.63
2024-03-06T17:41:11.207Z,15.73
2024-03-06T17:43:38.672Z,14.23
2024-03-06T17:46:06.917Z,14.68
2024-03-06T17:48:34.645Z,12.35
2024-03-06T17:51:01.903Z,13.50
2024-03-06T17:53:29.310Z,13.45
2024-03-06T17:55:56.621Z,14.23
2024-03-06T17:58:24.970Z,13.50
2024-03-06T18:00:52.150Z,11.40
2024-03-06T18:03:21.908Z,15.43
2024-03-06T18:05:49.557Z,14.05
2024-03-06T18:08:16.748Z,14.60
2024-03-06T18:10:43.900Z,13.35
2024-03-06T18:13:10.989Z,15.73
2024-03-06T18:15:39.742Z,14.77
2024-03-06T18:18:07.281Z,12.60
2024-03-06T18:20:34.513Z,14.25
2024-03-06T18:23:01.653Z,14.73
2024-03-06T18:25:29.944Z,13.07
2024-03-06T18:27:57.445Z,14.20
2024-03-06T18:30:24.671Z,13.90
2024-03-06T18:32:53.110Z,14.15
2024-03-06T18:35:20.380Z,15.05
2024-03-06T18:37:49.059Z,12.73
2024-03-06T18:40:16.799Z,15.13
2024-03-06T18:42:44.496Z,14.45
2024-03-06T18:45:11.851Z,12.98
2024-03-06T18:47:39.218Z,12.85
2024-03-06T18:50:09.026Z,15.88
2024-03-06T18:52:36.148Z,14.35
2024-03-06T18:55:03.858Z,12.27
2024-03-06T18:57:30.989Z,11.27
2024-03-06T18:59:58.425Z,12.70
2024-03-06T19:02:25.681Z,13.38
2024-03-06T19:04:54.053Z,11.95
2024-03-06T19:07:22.786Z,11.10
2024-03-06T19:09:49.771Z,10.45
2024-03-06T19:12:17.095Z,10.45
2024-03-06T19:14:45.434Z,11.30
2024-03-06T19:17:13.317Z,10.27
2024-03-06T19:19:40.627Z,10.50
2024-03-06T19:22:10.699Z,12.30
2024-03-06T19:24:39.131Z,11.45
2024-03-06T19:27:06.325Z,11.98
2024-03-06T19:29:33.649Z,11.18
2024-03-06T19:32:03.790Z,11.73
2024-03-06T19:34:34.798Z,12.45
2024-03-06T19:37:02.186Z,11.27
2024-03-06T19:39:29.330Z,10.98
2024-03-06T19:41:59.207Z,11.10
2024-03-06T19:44:29.491Z,10.73
2024-03-06T19:46:56.795Z,9.38
2024-03-06T19:49:24.327Z,11.30
2024-03-06T19:51:52.913Z,11.98
2024-03-06T19:54:19.982Z,12.25
2024-03-06T19:56:50.139Z,10.18
2024-03-06T19:59:18.738Z,10.02
2024-03-06T20:01:45.871Z,10.63
2024-03-06T20:04:13.558Z,9.73
2024-03-06T20:06:40.681Z,9.98
2024-03-06T20:09:09.320Z,9.93
2024-03-06T20:11:36.597Z,9.80
2024-03-06T20:14:04.026Z,8.48
2024-03-06T20:16:32.640Z,9.02
2024-03-06T20:19:00.607Z,7.68
2024-03-06T20:21:28.093Z,7.13
2024-03-06T20:23:55.524Z,7.03
2024-03-06T20:26:22.725Z,7.28
2024-03-06T20:28:51.666Z,7.55
2024-03-06T20:31:19.058Z,6.82
2024-03-06T20:33:47.454Z,7.05
2024-03-06T20:36:14.651Z,6.47
2024-03-06T20:38:41.838Z,7.05
2024-03-06T20:41:09.099Z,5.63
2024-03-06T20:43:40.301Z,6.63
2024-03-06T20:46:09.019Z,5.80
2024-03-06T20:48:36.985Z,6.72
2024-03-06T20:51:10.270Z,6.65
2024-03-06T20:53:37.580Z,6.03
2024-03-06T20:56:07.340Z,6.35
2024-03-06T20:58:34.693Z,7.45
2024-03-06T21:01:05.025Z,6.93
2024-03-06T21:05:59.793Z,6.80
2024-03-06T21:08:28.559Z,5.97
2024-03-06T21:10:55.811Z,6.95
2024-03-06T21:13:22.919Z,6.53
2024-03-06T21:15:49.954Z,7.20
2024-03-06T21:18:17.193Z,6.72
2024-03-06T21:20:44.798Z,7.20
2024-03-06T21:23:12.177Z,7.43
2024-03-06T21:25:40.717Z,6.65
2024-03-06T21:28:08.083Z,7.68
2024-03-06T21:30:35.144Z,7.00
2024-03-06T21:33:02.310Z,7.90
2024-03-06T21:35:30.096Z,6.68
2024-03-06T21:37:57.352Z,7.25
2024-03-06T21:40:25.374Z,6.97
2024-03-06T21:42:54.043Z,7.35
2024-03-06T21:45:21.273Z,8.40
2024-03-06T21:47:48.351Z,7.95
2024-03-06T21:50:17.014Z,7.15
2024-03-06T21:52:44.053Z,7.18
2024-03-06T21:55:13.444Z,6.93
2024-03-06T21:57:40.776Z,6.75
2024-03-06T22:00:14.736Z,6.35
2024-03-06T22:02:41.995Z,8.57
2024-03-06T22:05:10.117Z,7.13
2024-03-06T22:07:38.228Z,6.72
2024-03-06T22:10:08.926Z,6.78
2024-03-06T22:12:36.796Z,7.32
2024-03-06T22:15:04.494Z,7.60
2024-03-06T22:17:33.361Z,6.88
2024-03-06T22:20:00.704Z,7.18
2024-03-06T22:22:27.970Z,6.68
2024-03-06T22:24:55.117Z,7.50
2024-03-06T22:27:22.321Z,7.30
2024-03-06T22:29:49.588Z,7.75
2024-03-06T22:32:17.948Z,6.68
2024-03-06T22:34:46.594Z,6.70
2024-03-06T22:37:13.737Z,7.00
2024-03-06T22:39:41.209Z,6.93
2024-03-06T22:42:08.323Z,6.53
2024-03-06T22:44:38.782Z,6.85
2024-03-06T22:47:08.300Z,6.35
2024-03-06T22:49:36.136Z,6.45
2024-03-06T22:52:04.989Z,5.55
2024-03-06T22:54:32.391Z,6.60
2024-03-06T22:56:59.927Z,6.30
2024-03-06T22:59:27.055Z,6.03
2024-03-06T23:01:54.312Z,5.65
2024-03-06T23:04:21.509Z,7.20
2024-03-06T23:06:49.819Z,6.38
2024-03-06T23:09:18.539Z,7.10
2024-03-06T23:11:45.645Z,6.78
2024-03-06T23:14:13.021Z,5.90
2024-03-06T23:16:40.085Z,6.85
2024-03-06T23:19:07.206Z,7.22
2024-03-06T23:21:36.565Z,7.63
2024-03-06T23:24:05.116Z,7.65
2024-03-06T23:26:33.706Z,8.00
2024-03-06T23:29:01.156Z,8.43
2024-03-06T23:31:28.556Z,9.77
2024-03-06T23:33:55.928Z,8.52
2024-03-06T23:36:22.988Z,8.40
2024-03-06T23:38:50.474Z,9.18
2024-03-06T23:41:20.792Z,9.50
2024-03-06T23:43:49.300Z,9.60
2024-03-06T23:46:16.383Z,9.88
2024-03-06T23:48:43.677Z,9.30
2024-03-06T23:51:11.206Z,10.45
2024-03-06T23:53:38.396Z,8.05
2024-03-06T23:56:07.270Z,10.13
2024-03-06T23:58:34.501Z,8.93
